sensor_id;sensor_type;location;lat;lon;timestamp;P1;durP1;ratioP1;P2;durP2;ratioP2
39020;SDS011;25188;51.958;5.842;2024-01-10T00:01:34;3.87;;;1.73;;
39020;SDS011;25188;51.958;5.842;2024-01-10T00:04:00;4.73;;;1.50;;
39020;SDS011;25188;51.958;5.842;2024-01-10T00:06:26;7.87;;;2.00;;
39020;SDS011;25188;51.958;5.842;2024-01-10T00:08:51;7.13;;;2.07;;
39020;SDS011;25188;51.958;5.842;2024-01-10T00:11:17;5.13;;;1.77;;
39020;SDS011;25188;51.958;5.842;2024-01-10T00:13:43;6.10;;;1.97;;
39020;SDS011;25188;51.958;5.842;2024-01-10T00:16:11;8.07;;;1.83;;
39020;SDS011;25188;51.958;5.842;2024-01-10T00:18:38;6.13;;;1.70;;
39020;SDS011;25188;51.958;5.842;2024-01-10T00:21:05;4.33;;;1.33;;
39020;SDS011;25188;51.958;5.842;2024-01-10T00:23:31;6.47;;;1.63;;
39020;SDS011;25188;51.958;5.842;2024-01-10T00:25:57;5.63;;;1.50;;
39020;SDS011;25188;51.958;5.842;2024-01-10T00:28:23;4.23;;;1.40;;
39020;SDS011;25188;51.958;5.842;2024-01-10T00:30:49;4.63;;;1.50;;
39020;SDS011;25188;51.958;5.842;2024-01-10T00:33:15;6.63;;;1.80;;
39020;SDS011;25188;51.958;5.842;2024-01-10T00:35:41;5.60;;;1.60;;
39020;SDS011;25188;51.958;5.842;2024-01-10T00:38:07;5.87;;;1.53;;
39020;SDS011;25188;51.958;5.842;2024-01-10T00:40:33;4.77;;;1.50;;
39020;SDS011;25188;51.958;5.842;2024-01-10T00:42:59;4.20;;;1.50;;
39020;SDS011;25188;51.958;5.842;2024-01-10T00:45:25;3.90;;;1.10;;
39020;SDS011;25188;51.958;5.842;2024-01-10T00:47:51;6.37;;;1.73;;
39020;SDS011;25188;51.958;5.842;2024-01-10T00:50:17;3.93;;;1.37;;
39020;SDS011;25188;51.958;5.842;2024-01-10T00:52:46;5.30;;;1.20;;
39020;SDS011;25188;51.958;5.842;2024-01-10T00:55:12;4.33;;;1.33;;
39020;SDS011;25188;51.958;5.842;2024-01-10T00:57:38;4.63;;;1.63;;
39020;SDS011;25188;51.958;5.842;2024-01-10T01:00:07;3.40;;;1.60;;
39020;SDS011;25188;51.958;5.842;2024-01-10T01:02:34;5.53;;;1.70;;
39020;SDS011;25188;51.958;5.842;2024-01-10T01:05:00;5.17;;;1.50;;
39020;SDS011;25188;51.958;5.842;2024-01-10T01:07:27;5.37;;;1.93;;
39020;SDS011;25188;51.958;5.842;2024-01-10T01:09:53;5.40;;;1.50;;
39020;SDS011;25188;51.958;5.842;2024-01-10T01:12:19;4.03;;;1.33;;
39020;SDS011;25188;51.958;5.842;2024-01-10T01:14:44;4.77;;;1.63;;
39020;SDS011;25188;51.958;5.842;2024-01-10T01:17:10;4.60;;;1.40;;
39020;SDS011;25188;51.958;5.842;2024-01-10T01:19:36;5.73;;;1.93;;
39020;SDS011;25188;51.958;5.842;2024-01-10T01:22:02;5.27;;;1.50;;
39020;SDS011;25188;51.958;5.842;2024-01-10T01:24:28;5.53;;;1.40;;
39020;SDS011;25188;51.958;5.842;2024-01-10T01:26:53;6.60;;;1.50;;
39020;SDS011;25188;51.958;5.842;2024-01-10T01:29:19;6.37;;;1.80;;
39020;SDS011;25188;51.958;5.842;2024-01-10T01:31:45;5.07;;;1.57;;
39020;SDS011;25188;51.958;5.842;2024-01-10T01:34:12;4.90;;;1.60;;
39020;SDS011;25188;51.958;5.842;2024-01-10T01:36:37;6.33;;;2.07;;
39020;SDS011;25188;51.958;5.842;2024-01-10T01:39:03;5.83;;;1.87;;
39020;SDS011;25188;51.958;5.842;2024-01-10T01:41:29;7.93;;;2.10;;
39020;SDS011;25188;51.958;5.842;2024-01-10T01:43:55;6.43;;;1.90;;
39020;SDS011;25188;51.958;5.842;2024-01-10T01:46:21;7.33;;;2.07;;
39020;SDS011;25188;51.958;5.842;2024-01-10T01:48:47;7.20;;;1.87;;
39020;SDS011;25188;51.958;5.842;2024-01-10T01:51:14;5.23;;;1.73;;
39020;SDS011;25188;51.958;5.842;2024-01-10T01:53:40;5.13;;;1.83;;
39020;SDS011;25188;51.958;5.842;2024-01-10T01:56:09;6.53;;;1.50;;
39020;SDS011;25188;51.958;5.842;2024-01-10T01:58:36;5.63;;;1.57;;
39020;SDS011;25188;51.958;5.842;2024-01-10T02:01:02;4.03;;;1.30;;
39020;SDS011;25188;51.958;5.842;2024-01-10T02:03:32;3.93;;;1.50;;
39020;SDS011;25188;51.958;5.842;2024-01-10T02:05:58;7.57;;;2.37;;
39020;SDS011;25188;51.958;5.842;2024-01-10T02:08:25;9.10;;;2.47;;
39020;SDS011;25188;51.958;5.842;2024-01-10T02:10:51;6.03;;;2.23;;
39020;SDS011;25188;51.958;5.842;2024-01-10T02:13:17;4.80;;;1.60;;
39020;SDS011;25188;51.958;5.842;2024-01-10T02:15:43;7.20;;;2.30;;
39020;SDS011;25188;51.958;5.842;2024-01-10T02:18:09;6.30;;;1.70;;
39020;SDS011;25188;51.958;5.842;2024-01-10T02:20:37;8.47;;;2.47;;
39020;SDS011;25188;51.958;5.842;2024-01-10T02:23:03;6.23;;;2.40;;
39020;SDS011;25188;51.958;5.842;2024-01-10T02:25:29;5.20;;;2.07;;
39020;SDS011;25188;51.958;5.842;2024-01-10T02:27:54;5.13;;;1.70;;
39020;SDS011;25188;51.958;5.842;2024-01-10T02:30:20;5.37;;;1.90;;
39020;SDS011;25188;51.958;5.842;2024-01-10T02:32:46;5.47;;;1.70;;
39020;SDS011;25188;51.958;5.842;2024-01-10T02:35:12;6.93;;;1.90;;
39020;SDS011;25188;51.958;5.842;2024-01-10T02:37:37;8.03;;;2.97;;
39020;SDS011;25188;51.958;5.842;2024-01-10T02:40:03;7.17;;;2.40;;
39020;SDS011;25188;51.958;5.842;2024-01-10T02:42:29;9.90;;;2.77;;
39020;SDS011;25188;51.958;5.842;2024-01-10T02:44:56;5.93;;;2.10;;
39020;SDS011;25188;51.958;5.842;2024-01-10T02:47:21;7.73;;;2.23;;
39020;SDS011;25188;51.958;5.842;2024-01-10T02:49:47;6.30;;;2.03;;
39020;SDS011;25188;51.958;5.842;2024-01-10T02:52:13;7.53;;;2.30;;
39020;SDS011;25188;51.958;5.842;2024-01-10T02:54:38;5.10;;;1.90;;
39020;SDS011;25188;51.958;5.842;2024-01-10T02:57:04;6.60;;;2.40;;
39020;SDS011;25188;51.958;5.842;2024-01-10T02:59:30;6.97;;;2.60;;
39020;SDS011;25188;51.958;5.842;2024-01-10T03:01:55;7.23;;;2.20;;
39020;SDS011;25188;51.958;5.842;2024-01-10T03:04:21;4.93;;;1.50;;
39020;SDS011;25188;51.958;5.842;2024-01-10T03:06:47;5.50;;;2.37;;
39020;SDS011;25188;51.958;5.842;2024-01-10T03:09:12;6.17;;;1.73;;
39020;SDS011;25188;51.958;5.842;2024-01-10T03:11:38;8.60;;;2.50;;
39020;SDS011;25188;51.958;5.842;2024-01-10T03:14:07;8.83;;;2.03;;
39020;SDS011;25188;51.958;5.842;2024-01-10T03:16:34;6.20;;;2.00;;
39020;SDS011;25188;51.958;5.842;2024-01-10T03:19:00;6.13;;;2.13;;
39020;SDS011;25188;51.958;5.842;2024-01-10T03:21:29;4.53;;;1.70;;
39020;SDS011;25188;51.958;5.842;2024-01-10T03:23:55;5.43;;;1.90;;
39020;SDS011;25188;51.958;5.842;2024-01-10T03:26:22;7.10;;;1.97;;
39020;SDS011;25188;51.958;5.842;2024-01-10T03:28:49;6.73;;;2.10;;
39020;SDS011;25188;51.958;5.842;2024-01-10T03:31:16;6.93;;;2.17;;
39020;SDS011;25188;51.958;5.842;2024-01-10T03:33:42;7.00;;;1.80;;
39020;SDS011;25188;51.958;5.842;2024-01-10T03:36:09;7.00;;;2.30;;
39020;SDS011;25188;51.958;5.842;2024-01-10T03:38:36;5.73;;;1.70;;
39020;SDS011;25188;51.958;5.842;2024-01-10T03:41:02;7.60;;;2.07;;
39020;SDS011;25188;51.958;5.842;2024-01-10T03:43:28;5.97;;;2.00;;
39020;SDS011;25188;51.958;5.842;2024-01-10T03:45:53;7.00;;;1.93;;
39020;SDS011;25188;51.958;5.842;2024-01-10T03:48:20;4.77;;;1.50;;
39020;SDS011;25188;51.958;5.842;2024-01-10T03:50:45;5.67;;;1.93;;
39020;SDS011;25188;51.958;5.842;2024-01-10T03:53:11;6.73;;;2.07;;
39020;SDS011;25188;51.958;5.842;2024-01-10T03:55:37;5.47;;;1.60;;
39020;SDS011;25188;51.958;5.842;2024-01-10T03:58:04;5.17;;;1.80;;
39020;SDS011;25188;51.958;5.842;2024-01-10T04:00:29;7.70;;;2.60;;
39020;SDS011;25188;51.958;5.842;2024-01-10T04:02:55;5.63;;;2.03;;
39020;SDS011;25188;51.958;5.842;2024-01-10T04:05:21;5.67;;;1.90;;
39020;SDS011;25188;51.958;5.842;2024-01-10T04:07:49;5.93;;;2.13;;
39020;SDS011;25188;51.958;5.842;2024-01-10T04:10:16;7.10;;;2.60;;
39020;SDS011;25188;51.958;5.842;2024-01-10T04:12:45;8.87;;;1.93;;
39020;SDS011;25188;51.958;5.842;2024-01-10T04:15:11;6.37;;;1.77;;
39020;SDS011;25188;51.958;5.842;2024-01-10T04:17:37;8.50;;;2.07;;
39020;SDS011;25188;51.958;5.842;2024-01-10T04:20:03;6.20;;;1.93;;
39020;SDS011;25188;51.958;5.842;2024-01-10T04:22:30;6.93;;;2.33;;
39020;SDS011;25188;51.958;5.842;2024-01-10T04:24:59;7.50;;;2.30;;
39020;SDS011;25188;51.958;5.842;2024-01-10T04:27:26;8.23;;;2.37;;
39020;SDS011;25188;51.958;5.842;2024-01-10T04:29:52;7.97;;;2.83;;
39020;SDS011;25188;51.958;5.842;2024-01-10T04:32:18;8.17;;;3.07;;
39020;SDS011;25188;51.958;5.842;2024-01-10T04:34:44;9.83;;;3.30;;
39020;SDS011;25188;51.958;5.842;2024-01-10T04:37:10;9.23;;;2.87;;
39020;SDS011;25188;51.958;5.842;2024-01-10T04:39:35;9.20;;;3.40;;
39020;SDS011;25188;51.958;5.842;2024-01-10T04:42:03;6.50;;;2.37;;
39020;SDS011;25188;51.958;5.842;2024-01-10T04:44:29;7.17;;;3.30;;
39020;SDS011;25188;51.958;5.842;2024-01-10T04:46:54;8.87;;;3.30;;
39020;SDS011;25188;51.958;5.842;2024-01-10T04:49:20;7.73;;;2.50;;
39020;SDS011;25188;51.958;5.842;2024-01-10T04:51:46;10.37;;;3.17;;
39020;SDS011;25188;51.958;5.842;2024-01-10T04:54:12;5.70;;;2.40;;
39020;SDS011;25188;51.958;5.842;2024-01-10T04:56:38;8.83;;;3.20;;
39020;SDS011;25188;51.958;5.842;2024-01-10T04:59:04;8.40;;;3.17;;
39020;SDS011;25188;51.958;5.842;2024-01-10T05:01:30;8.47;;;3.10;;
39020;SDS011;25188;51.958;5.842;2024-01-10T05:03:56;6.30;;;2.17;;
39020;SDS011;25188;51.958;5.842;2024-01-10T05:06:22;5.97;;;2.43;;
39020;SDS011;25188;51.958;5.842;2024-01-10T05:08:47;8.87;;;2.73;;
39020;SDS011;25188;51.958;5.842;2024-01-10T05:11:13;7.07;;;2.50;;
39020;SDS011;25188;51.958;5.842;2024-01-10T05:13:40;7.30;;;2.60;;
39020;SDS011;25188;51.958;5.842;2024-01-10T05:16:08;6.50;;;2.13;;
39020;SDS011;25188;51.958;5.842;2024-01-10T05:18:34;7.13;;;2.93;;
39020;SDS011;25188;51.958;5.842;2024-01-10T05:21:00;8.90;;;3.10;;
39020;SDS011;25188;51.958;5.842;2024-01-10T05:23:26;10.30;;;2.83;;
39020;SDS011;25188;51.958;5.842;2024-01-10T05:25:53;9.60;;;2.93;;
39020;SDS011;25188;51.958;5.842;2024-01-10T05:28:19;8.53;;;2.53;;
39020;SDS011;25188;51.958;5.842;2024-01-10T05:30:44;9.07;;;3.23;;
39020;SDS011;25188;51.958;5.842;2024-01-10T05:33:10;7.17;;;2.70;;
39020;SDS011;25188;51.958;5.842;2024-01-10T05:35:36;7.60;;;2.63;;
39020;SDS011;25188;51.958;5.842;2024-01-10T05:38:05;7.00;;;2.60;;
39020;SDS011;25188;51.958;5.842;2024-01-10T05:40:30;6.67;;;2.27;;
39020;SDS011;25188;51.958;5.842;2024-01-10T05:42:57;4.97;;;1.90;;
39020;SDS011;25188;51.958;5.842;2024-01-10T05:45:24;6.73;;;2.23;;
39020;SDS011;25188;51.958;5.842;2024-01-10T05:47:50;8.47;;;2.70;;
39020;SDS011;25188;51.958;5.842;2024-01-10T05:50:16;6.80;;;2.13;;
39020;SDS011;25188;51.958;5.842;2024-01-10T05:52:42;5.10;;;1.87;;
39020;SDS011;25188;51.958;5.842;2024-01-10T05:55:08;7.03;;;2.30;;
39020;SDS011;25188;51.958;5.842;2024-01-10T05:57:35;9.23;;;2.80;;
39020;SDS011;25188;51.958;5.842;2024-01-10T06:00:04;6.10;;;2.50;;
39020;SDS011;25188;51.958;5.842;2024-01-10T06:02:35;7.73;;;2.10;;
39020;SDS011;25188;51.958;5.842;2024-01-10T06:05:05;7.80;;;3.00;;
39020;SDS011;25188;51.958;5.842;2024-01-10T06:07:31;7.97;;;2.97;;
39020;SDS011;25188;51.958;5.842;2024-01-10T06:09:57;7.53;;;2.73;;
39020;SDS011;25188;51.958;5.842;2024-01-10T06:12:23;7.73;;;2.90;;
39020;SDS011;25188;51.958;5.842;2024-01-10T06:14:48;9.27;;;2.70;;
39020;SDS011;25188;51.958;5.842;2024-01-10T06:17:14;10.87;;;4.13;;
39020;SDS011;25188;51.958;5.842;2024-01-10T06:19:41;10.20;;;3.50;;
39020;SDS011;25188;51.958;5.842;2024-01-10T06:22:06;8.50;;;3.40;;
39020;SDS011;25188;51.958;5.842;2024-01-10T06:24:32;9.60;;;3.50;;
39020;SDS011;25188;51.958;5.842;2024-01-10T06:26:58;8.63;;;3.40;;
39020;SDS011;25188;51.958;5.842;2024-01-10T06:29:24;8.43;;;3.60;;
39020;SDS011;25188;51.958;5.842;2024-01-10T06:31:50;9.67;;;4.20;;
39020;SDS011;25188;51.958;5.842;2024-01-10T06:34:15;8.27;;;3.03;;
39020;SDS011;25188;51.958;5.842;2024-01-10T06:36:41;10.23;;;3.37;;
39020;SDS011;25188;51.958;5.842;2024-01-10T06:39:09;9.23;;;3.53;;
39020;SDS011;25188;51.958;5.842;2024-01-10T06:41:37;10.33;;;3.43;;
39020;SDS011;25188;51.958;5.842;2024-01-10T06:44:03;12.37;;;3.50;;
39020;SDS011;25188;51.958;5.842;2024-01-10T06:46:29;9.70;;;3.40;;
39020;SDS011;25188;51.958;5.842;2024-01-10T06:48:56;9.30;;;3.37;;
39020;SDS011;25188;51.958;5.842;2024-01-10T06:51:24;14.67;;;4.27;;
39020;SDS011;25188;51.958;5.842;2024-01-10T06:53:50;10.33;;;4.27;;
39020;SDS011;25188;51.958;5.842;2024-01-10T06:56:15;10.60;;;4.20;;
39020;SDS011;25188;51.958;5.842;2024-01-10T06:58:41;11.57;;;3.63;;
39020;SDS011;25188;51.958;5.842;2024-01-10T07:01:13;12.60;;;4.33;;
39020;SDS011;25188;51.958;5.842;2024-01-10T07:03:39;9.97;;;3.80;;
39020;SDS011;25188;51.958;5.842;2024-01-10T07:06:05;12.17;;;4.77;;
39020;SDS011;25188;51.958;5.842;2024-01-10T07:08:31;8.83;;;3.80;;
39020;SDS011;25188;51.958;5.842;2024-01-10T07:10:57;10.30;;;3.63;;
39020;SDS011;25188;51.958;5.842;2024-01-10T07:13:22;11.73;;;3.77;;
39020;SDS011;25188;51.958;5.842;2024-01-10T07:15:48;12.30;;;4.70;;
39020;SDS011;25188;51.958;5.842;2024-01-10T07:18:17;12.40;;;5.07;;
39020;SDS011;25188;51.958;5.842;2024-01-10T07:20:43;13.37;;;5.17;;
39020;SDS011;25188;51.958;5.842;2024-01-10T07:23:08;11.30;;;5.10;;
39020;SDS011;25188;51.958;5.842;2024-01-10T07:25:35;12.23;;;4.47;;
39020;SDS011;25188;51.958;5.842;2024-01-10T07:28:02;12.70;;;4.47;;
39020;SDS011;25188;51.958;5.842;2024-01-10T07:30:28;12.10;;;4.67;;
39020;SDS011;25188;51.958;5.842;2024-01-10T07:32:58;11.43;;;4.60;;
39020;SDS011;25188;51.958;5.842;2024-01-10T07:35:24;14.67;;;4.13;;
39020;SDS011;25188;51.958;5.842;2024-01-10T07:37:50;15.20;;;4.80;;
39020;SDS011;25188;51.958;5.842;2024-01-10T07:40:15;13.70;;;4.83;;
39020;SDS011;25188;51.958;5.842;2024-01-10T07:42:42;15.10;;;5.97;;
39020;SDS011;25188;51.958;5.842;2024-01-10T07:45:07;10.40;;;5.30;;
39020;SDS011;25188;51.958;5.842;2024-01-10T07:47:34;11.03;;;4.93;;
39020;SDS011;25188;51.958;5.842;2024-01-10T07:50:05;10.67;;;4.10;;
39020;SDS011;25188;51.958;5.842;2024-01-10T07:52:33;10.87;;;4.33;;
39020;SDS011;25188;51.958;5.842;2024-01-10T07:54:59;10.80;;;4.00;;
39020;SDS011;25188;51.958;5.842;2024-01-10T07:57:26;9.70;;;4.00;;
39020;SDS011;25188;51.958;5.842;2024-01-10T07:59:52;13.83;;;4.90;;
39020;SDS011;25188;51.958;5.842;2024-01-10T08:02:18;10.23;;;4.27;;
39020;SDS011;25188;51.958;5.842;2024-01-10T08:04:44;11.43;;;5.20;;
39020;SDS011;25188;51.958;5.842;2024-01-10T08:07:10;12.43;;;4.37;;
39020;SDS011;25188;51.958;5.842;2024-01-10T08:09:36;15.17;;;5.17;;
39020;SDS011;25188;51.958;5.842;2024-01-10T08:12:02;12.03;;;5.20;;
39020;SDS011;25188;51.958;5.842;2024-01-10T08:14:31;14.37;;;6.03;;
39020;SDS011;25188;51.958;5.842;2024-01-10T08:16:57;14.80;;;5.97;;
39020;SDS011;25188;51.958;5.842;2024-01-10T08:19:26;13.53;;;5.57;;
39020;SDS011;25188;51.958;5.842;2024-01-10T08:21:52;12.73;;;5.73;;
39020;SDS011;25188;51.958;5.842;2024-01-10T08:24:19;13.77;;;5.67;;
39020;SDS011;25188;51.958;5.842;2024-01-10T08:26:46;12.93;;;4.67;;
39020;SDS011;25188;51.958;5.842;2024-01-10T08:29:16;15.17;;;6.10;;
39020;SDS011;25188;51.958;5.842;2024-01-10T08:31:46;21.07;;;6.70;;
39020;SDS011;25188;51.958;5.842;2024-01-10T08:34:12;15.50;;;6.70;;
39020;SDS011;25188;51.958;5.842;2024-01-10T08:36:37;21.87;;;7.40;;
39020;SDS011;25188;51.958;5.842;2024-01-10T08:39:03;16.33;;;7.63;;
39020;SDS011;25188;51.958;5.842;2024-01-10T08:41:30;16.37;;;7.03;;
39020;SDS011;25188;51.958;5.842;2024-01-10T08:43:56;19.93;;;7.57;;
39020;SDS011;25188;51.958;5.842;2024-01-10T08:46:22;18.37;;;7.67;;
39020;SDS011;25188;51.958;5.842;2024-01-10T08:48:49;17.83;;;7.03;;
39020;SDS011;25188;51.958;5.842;2024-01-10T08:51:15;19.83;;;6.47;;
39020;SDS011;25188;51.958;5.842;2024-01-10T08:53:42;15.70;;;7.13;;
39020;SDS011;25188;51.958;5.842;2024-01-10T08:56:08;17.73;;;6.30;;
39020;SDS011;25188;51.958;5.842;2024-01-10T08:58:35;17.57;;;6.87;;
39020;SDS011;25188;51.958;5.842;2024-01-10T09:01:01;16.60;;;6.60;;
39020;SDS011;25188;51.958;5.842;2024-01-10T09:03:29;14.40;;;5.90;;
39020;SDS011;25188;51.958;5.842;2024-01-10T09:05:55;14.80;;;5.87;;
39020;SDS011;25188;51.958;5.842;2024-01-10T09:08:20;13.27;;;5.57;;
39020;SDS011;25188;51.958;5.842;2024-01-10T09:10:46;14.67;;;6.00;;
39020;SDS011;25188;51.958;5.842;2024-01-10T09:13:14;16.13;;;5.60;;
39020;SDS011;25188;51.958;5.842;2024-01-10T09:15:40;14.60;;;6.20;;
39020;SDS011;25188;51.958;5.842;2024-01-10T09:18:06;16.47;;;6.07;;
39020;SDS011;25188;51.958;5.842;2024-01-10T09:20:31;15.93;;;6.17;;
39020;SDS011;25188;51.958;5.842;2024-01-10T09:22:57;20.93;;;7.23;;
39020;SDS011;25188;51.958;5.842;2024-01-10T09:25:25;18.27;;;7.30;;
39020;SDS011;25188;51.958;5.842;2024-01-10T09:27:51;15.77;;;5.87;;
39020;SDS011;25188;51.958;5.842;2024-01-10T09:30:16;17.80;;;7.57;;
39020;SDS011;25188;51.958;5.842;2024-01-10T09:32:43;17.20;;;7.07;;
39020;SDS011;25188;51.958;5.842;2024-01-10T09:35:10;17.20;;;7.23;;
39020;SDS011;25188;51.958;5.842;2024-01-10T09:37:35;15.87;;;5.90;;
39020;SDS011;25188;51.958;5.842;2024-01-10T09:40:01;16.53;;;6.60;;
39020;SDS011;25188;51.958;5.842;2024-01-10T09:42:28;16.33;;;7.10;;
39020;SDS011;25188;51.958;5.842;2024-01-10T09:44:56;16.43;;;6.63;;
39020;SDS011;25188;51.958;5.842;2024-01-10T09:47:23;15.83;;;5.93;;
39020;SDS011;25188;51.958;5.842;2024-01-10T09:49:49;15.53;;;6.00;;
39020;SDS011;25188;51.958;5.842;2024-01-10T09:52:24;10.77;;;4.97;;
39020;SDS011;25188;51.958;5.842;2024-01-10T09:54:55;14.77;;;6.27;;
39020;SDS011;25188;51.958;5.842;2024-01-10T09:57:22;14.33;;;6.50;;
39020;SDS011;25188;51.958;5.842;2024-01-10T09:59:49;13.90;;;5.80;;
39020;SDS011;25188;51.958;5.842;2024-01-10T10:02:16;13.33;;;5.70;;
39020;SDS011;25188;51.958;5.842;2024-01-10T10:05:03;13.97;;;5.80;;
39020;SDS011;25188;51.958;5.842;2024-01-10T10:07:46;13.63;;;5.20;;
39020;SDS011;25188;51.958;5.842;2024-01-10T10:10:13;11.47;;;5.13;;
39020;SDS011;25188;51.958;5.842;2024-01-10T10:12:47;12.40;;;5.77;;
39020;SDS011;25188;51.958;5.842;2024-01-10T10:15:17;10.83;;;5.47;;
39020;SDS011;25188;51.958;5.842;2024-01-10T10:17:46;11.05;;;5.60;;
39020;SDS011;25188;51.958;5.842;2024-01-10T10:20:23;11.02;;;5.95;;
39020;SDS011;25188;51.958;5.842;2024-01-10T10:25:28;11.95;;;6.10;;
39020;SDS011;25188;51.958;5.842;2024-01-10T10:27:55;12.13;;;6.10;;
39020;SDS011;25188;51.958;5.842;2024-01-10T10:30:20;12.32;;;6.68;;
39020;SDS011;25188;51.958;5.842;2024-01-10T10:32:47;10.27;;;5.10;;
39020;SDS011;25188;51.958;5.842;2024-01-10T10:35:13;11.35;;;5.70;;
39020;SDS011;25188;51.958;5.842;2024-01-10T10:37:38;11.77;;;5.90;;
39020;SDS011;25188;51.958;5.842;2024-01-10T10:40:04;13.55;;;6.68;;
39020;SDS011;25188;51.958;5.842;2024-01-10T10:42:34;12.02;;;6.07;;
39020;SDS011;25188;51.958;5.842;2024-01-10T10:45:04;12.80;;;6.38;;
39020;SDS011;25188;51.958;5.842;2024-01-10T10:47:33;14.13;;;6.45;;
39020;SDS011;25188;51.958;5.842;2024-01-10T10:50:02;11.35;;;6.55;;
39020;SDS011;25188;51.958;5.842;2024-01-10T10:52:29;13.80;;;7.00;;
39020;SDS011;25188;51.958;5.842;2024-01-10T10:54:56;13.73;;;6.20;;
39020;SDS011;25188;51.958;5.842;2024-01-10T10:57:25;11.90;;;6.53;;
39020;SDS011;25188;51.958;5.842;2024-01-10T10:59:53;14.90;;;7.43;;
39020;SDS011;25188;51.958;5.842;2024-01-10T11:02:21;14.25;;;6.75;;
39020;SDS011;25188;51.958;5.842;2024-01-10T11:04:50;13.97;;;6.73;;
39020;SDS011;25188;51.958;5.842;2024-01-10T11:07:17;13.63;;;6.17;;
39020;SDS011;25188;51.958;5.842;2024-01-10T11:09:43;12.95;;;6.10;;
39020;SDS011;25188;51.958;5.842;2024-01-10T11:15:24;10.45;;;5.50;;
39020;SDS011;25188;51.958;5.842;2024-01-10T11:23:40;12.45;;;6.38;;
39020;SDS011;25188;51.958;5.842;2024-01-10T11:26:10;12.48;;;6.55;;
39020;SDS011;25188;51.958;5.842;2024-01-10T11:28:36;14.45;;;6.70;;
39020;SDS011;25188;51.958;5.842;2024-01-10T11:31:05;12.82;;;6.10;;
39020;SDS011;25188;51.958;5.842;2024-01-10T11:33:34;14.70;;;7.88;;
39020;SDS011;25188;51.958;5.842;2024-01-10T11:36:12;11.13;;;5.75;;
39020;SDS011;25188;51.958;5.842;2024-01-10T11:41:14;13.63;;;6.55;;
39020;SDS011;25188;51.958;5.842;2024-01-10T11:43:45;13.80;;;7.07;;
39020;SDS011;25188;51.958;5.842;2024-01-10T11:46:12;15.90;;;7.30;;
39020;SDS011;25188;51.958;5.842;2024-01-10T11:48:38;12.30;;;7.00;;
39020;SDS011;25188;51.958;5.842;2024-01-10T11:51:04;15.57;;;7.03;;
39020;SDS011;25188;51.958;5.842;2024-01-10T11:53:45;15.63;;;7.27;;
39020;SDS011;25188;51.958;5.842;2024-01-10T11:56:15;13.03;;;7.17;;
39020;SDS011;25188;51.958;5.842;2024-01-10T12:01:21;15.03;;;7.17;;
39020;SDS011;25188;51.958;5.842;2024-01-10T12:03:47;13.80;;;7.73;;
39020;SDS011;25188;51.958;5.842;2024-01-10T12:06:16;12.70;;;6.70;;
39020;SDS011;25188;51.958;5.842;2024-01-10T12:08:42;13.25;;;6.13;;
39020;SDS011;25188;51.958;5.842;2024-01-10T12:11:08;13.55;;;6.68;;
39020;SDS011;25188;51.958;5.842;2024-01-10T12:13:34;14.50;;;7.20;;
39020;SDS011;25188;51.958;5.842;2024-01-10T12:16:00;12.13;;;6.53;;
39020;SDS011;25188;51.958;5.842;2024-01-10T12:18:26;13.00;;;6.82;;
39020;SDS011;25188;51.958;5.842;2024-01-10T12:20:51;15.05;;;7.10;;
39020;SDS011;25188;51.958;5.842;2024-01-10T12:23:17;13.23;;;7.25;;
39020;SDS011;25188;51.958;5.842;2024-01-10T12:25:42;14.00;;;5.65;;
39020;SDS011;25188;51.958;5.842;2024-01-10T12:28:08;12.48;;;6.18;;
39020;SDS011;25188;51.958;5.842;2024-01-10T12:30:34;11.45;;;6.30;;
39020;SDS011;25188;51.958;5.842;2024-01-10T12:33:00;13.10;;;6.68;;
39020;SDS011;25188;51.958;5.842;2024-01-10T12:35:26;12.35;;;6.93;;
39020;SDS011;25188;51.958;5.842;2024-01-10T12:37:55;11.25;;;6.50;;
39020;SDS011;25188;51.958;5.842;2024-01-10T12:40:21;11.65;;;6.43;;
39020;SDS011;25188;51.958;5.842;2024-01-10T12:42:47;12.00;;;7.60;;
39020;SDS011;25188;51.958;5.842;2024-01-10T12:45:22;11.75;;;6.43;;
39020;SDS011;25188;51.958;5.842;2024-01-10T12:47:48;11.85;;;7.55;;
39020;SDS011;25188;51.958;5.842;2024-01-10T12:50:14;14.68;;;7.10;;
39020;SDS011;25188;51.958;5.842;2024-01-10T12:52:40;11.70;;;6.97;;
39020;SDS011;25188;51.958;5.842;2024-01-10T12:55:08;15.77;;;7.35;;
39020;SDS011;25188;51.958;5.842;2024-01-10T12:57:34;11.77;;;7.07;;
39020;SDS011;25188;51.958;5.842;2024-01-10T13:00:00;11.32;;;6.53;;
39020;SDS011;25188;51.958;5.842;2024-01-10T13:02:31;12.95;;;6.60;;
39020;SDS011;25188;51.958;5.842;2024-01-10T13:05:05;11.18;;;7.10;;
39020;SDS011;25188;51.958;5.842;2024-01-10T13:07:35;13.55;;;6.53;;
39020;SDS011;25188;51.958;5.842;2024-01-10T13:10:01;11.93;;;6.95;;
39020;SDS011;25188;51.958;5.842;2024-01-10T13:12:27;11.15;;;6.82;;
39020;SDS011;25188;51.958;5.842;2024-01-10T13:14:52;11.35;;;6.60;;
39020;SDS011;25188;51.958;5.842;2024-01-10T13:17:18;12.98;;;7.60;;
39020;SDS011;25188;51.958;5.842;2024-01-10T13:19:45;13.35;;;7.75;;
39020;SDS011;25188;51.958;5.842;2024-01-10T13:22:14;11.15;;;6.45;;
39020;SDS011;25188;51.958;5.842;2024-01-10T13:24:45;11.75;;;6.50;;
39020;SDS011;25188;51.958;5.842;2024-01-10T13:27:12;10.30;;;6.00;;
39020;SDS011;25188;51.958;5.842;2024-01-10T13:29:38;11.80;;;6.15;;
39020;SDS011;25188;51.958;5.842;2024-01-10T13:32:06;11.50;;;6.45;;
39020;SDS011;25188;51.958;5.842;2024-01-10T13:34:32;11.65;;;6.88;;
39020;SDS011;25188;51.958;5.842;2024-01-10T13:36:58;12.43;;;7.50;;
39020;SDS011;25188;51.958;5.842;2024-01-10T13:39:24;11.27;;;7.40;;
39020;SDS011;25188;51.958;5.842;2024-01-10T13:41:50;11.25;;;6.93;;
39020;SDS011;25188;51.958;5.842;2024-01-10T13:44:16;11.95;;;7.10;;
39020;SDS011;25188;51.958;5.842;2024-01-10T13:46:42;10.57;;;6.53;;
39020;SDS011;25188;51.958;5.842;2024-01-10T13:49:07;11.52;;;5.85;;
39020;SDS011;25188;51.958;5.842;2024-01-10T13:51:33;12.23;;;7.15;;
39020;SDS011;25188;51.958;5.842;2024-01-10T13:53:58;13.93;;;7.07;;
39020;SDS011;25188;51.958;5.842;2024-01-10T13:56:24;11.00;;;6.53;;
39020;SDS011;25188;51.958;5.842;2024-01-10T13:58:52;12.13;;;7.05;;
39020;SDS011;25188;51.958;5.842;2024-01-10T14:01:19;11.50;;;6.22;;
39020;SDS011;25188;51.958;5.842;2024-01-10T14:03:44;13.38;;;6.80;;
39020;SDS011;25188;51.958;5.842;2024-01-10T14:06:10;13.10;;;6.72;;
39020;SDS011;25188;51.958;5.842;2024-01-10T14:08:36;11.95;;;6.78;;
39020;SDS011;25188;51.958;5.842;2024-01-10T14:11:02;11.05;;;6.88;;
39020;SDS011;25188;51.958;5.842;2024-01-10T14:13:29;12.90;;;6.65;;
39020;SDS011;25188;51.958;5.842;2024-01-10T14:15:55;13.27;;;6.93;;
39020;SDS011;25188;51.958;5.842;2024-01-10T14:18:20;13.80;;;6.82;;
39020;SDS011;25188;51.958;5.842;2024-01-10T14:20:46;11.05;;;6.43;;
39020;SDS011;25188;51.958;5.842;2024-01-10T14:23:12;12.05;;;7.03;;
39020;SDS011;25188;51.958;5.842;2024-01-10T14:25:37;11.73;;;6.82;;
39020;SDS011;25188;51.958;5.842;2024-01-10T14:28:03;11.38;;;6.25;;
39020;SDS011;25188;51.958;5.842;2024-01-10T14:30:29;12.27;;;6.50;;
39020;SDS011;25188;51.958;5.842;2024-01-10T14:32:57;13.52;;;6.05;;
39020;SDS011;25188;51.958;5.842;2024-01-10T14:35:24;16.92;;;7.45;;
39020;SDS011;25188;51.958;5.842;2024-01-10T14:37:50;14.63;;;6.80;;
39020;SDS011;25188;51.958;5.842;2024-01-10T14:40:15;14.30;;;6.27;;
39020;SDS011;25188;51.958;5.842;2024-01-10T14:42:41;14.97;;;7.73;;
39020;SDS011;25188;51.958;5.842;2024-01-10T14:45:07;13.27;;;6.57;;
39020;SDS011;25188;51.958;5.842;2024-01-10T14:47:33;14.47;;;7.53;;
39020;SDS011;25188;51.958;5.842;2024-01-10T14:50:00;14.80;;;7.63;;
39020;SDS011;25188;51.958;5.842;2024-01-10T14:52:26;13.90;;;7.20;;
39020;SDS011;25188;51.958;5.842;2024-01-10T14:54:52;15.43;;;7.53;;